Time;durP1;ratioP1;P1;durP2;ratioP2;P2;SDS_P1;SDS_P2;PMS_P1;PMS_P2;Temp;Humidity;BMP_temperature;BMP_pressure;BME280_temperature;BME280_humidity;BME280_pressure;Samples;Min_cycle;Max_cycle;Signal;HPM_P1;HPM_P2
2022/06/09 00:01:40;;;;;;;6.20;4.78;;;;;;;18.77;80.74;98716.81;5033718;28;20032;-76
2022/06/09 00:04:40;;;;;;;4.95;4.13;;;;;;;18.78;80.57;98717.63;5032646;28;20041;-76
2022/06/09 00:07:14;;;;;;;5.40;4.55;;;;;;;18.78;80.75;98714.78;5033399;28;20034;-75
2022/06/09 00:09:54;;;;;;;12.25;4.32;;;;;;;18.87;80.36;98703.00;5017132;28;20033;-75
2022/06/09 00:12:21;;;;;;;;;;;;;;;18.96;79.79;98713.94;5029763;28;20403;-76
2022/06/09 00:14:46;;;;;;;5.70;4.90;;;;;;;19.10;79.02;98716.72;5033122;28;19949;-75
2022/06/09 00:17:12;;;;;;;7.20;4.85;;;;;;;19.23;78.64;98714.22;5033782;28;20049;-76
2022/06/09 00:19:37;;;;;;;5.45;4.95;;;;;;;19.44;77.71;98721.81;5033719;28;20404;-76
2022/06/09 00:22:03;;;;;;;4.72;4.13;;;;;;;19.56;77.21;98719.75;5033484;28;20029;-76
2022/06/09 00:24:28;;;;;;;4.78;4.28;;;;;;;19.38;77.72;98725.50;5029550;28;20026;-76
2022/06/09 00:26:54;;;;;;;10.18;4.57;;;;;;;18.90;79.80;98725.66;5028877;28;20029;-75
2022/06/09 00:29:19;;;;;;;5.18;4.28;;;;;;;18.83;80.22;98713.56;5032197;28;20473;-76
2022/06/09 00:31:45;;;;;;;6.15;4.47;;;;;;;18.46;82.18;98707.16;5033576;28;20025;-75
2022/06/09 00:34:10;;;;;;;8.63;5.18;;;;;;;18.56;82.17;98711.22;5033543;28;20029;-75
2022/06/09 00:36:36;;;;;;;4.70;4.20;;;;;;;18.70;81.79;98718.84;5033008;28;20046;-75
2022/06/09 00:39:02;;;;;;;8.68;4.78;;;;;;;18.64;81.44;98712.78;5033269;28;20134;-75
2022/06/09 00:41:28;;;;;;;4.82;3.80;;;;;;;18.61;82.43;98719.28;5031119;28;20025;-76
2022/06/09 00:44:12;;;;;;;7.95;4.00;;;;;;;18.77;81.40;98718.84;5031955;28;20082;-76
2022/06/09 00:46:38;;;;;;;4.72;4.18;;;;;;;18.73;81.35;98715.22;5030595;28;20056;-76
2022/06/09 00:49:13;;;;;;;5.00;4.13;;;;;;;18.49;82.41;98707.16;5032950;28;20029;-76
2022/06/09 00:51:53;;;;;;;5.00;4.50;;;;;;;18.30;83.09;98699.13;5031629;28;20032;-76
2022/06/09 00:54:23;;;;;;;4.47;4.05;;;;;;;18.27;83.56;98697.91;5033428;28;20025;-75
2022/06/09 00:57:01;;;;;;;4.82;4.35;;;;;;;18.04;84.01;98681.34;5032870;28;20070;-75
2022/06/09 00:59:28;;;;;;;5.80;4.68;;;;;;;18.12;84.43;98696.31;5033106;28;20434;-75
2022/06/09 01:01:55;;;;;;;7.22;5.15;;;;;;;18.00;85.29;98715.28;5027001;28;20040;-75
2022/06/09 01:04:22;;;;;;;7.72;4.35;;;;;;;18.01;85.44;98699.13;5013132;28;20030;-76
2022/06/09 01:06:54;;;;;;;9.30;4.90;;;;;;;18.03;85.50;98703.19;5010462;28;20542;-75
2022/06/09 01:09:23;;;;;;;5.10;4.53;;;;;;;18.14;84.70;98708.03;5020408;28;20524;-75
2022/06/09 01:11:51;;;;;;;5.38;4.32;;;;;;;18.10;84.74;98708.84;5031291;28;20415;-76
2022/06/09 01:14:20;;;;;;;7.35;5.22;;;;;;;18.27;84.12;98702.75;5032877;28;20108;-76
2022/06/09 01:17:07;;;;;;;6.90;4.72;;;;;;;18.44;83.65;98706.78;5031516;28;20021;-76
2022/06/09 01:19:44;;;;;;;7.57;4.72;;;;;;;18.38;83.68;98706.38;5032569;28;20440;-75
2022/06/09 01:22:46;;;;;;;5.13;4.57;;;;;;;18.22;84.20;98712.47;5014131;28;20030;-75
2022/06/09 01:25:54;;;;;;;10.27;4.75;;;;;;;17.97;85.17;98713.25;5032510;28;20028;-75
2022/06/09 01:28:50;;;;;;;6.60;4.80;;;;;;;17.80;85.77;98703.56;5028054;28;20030;-76
2022/06/09 01:31:41;;;;;;;6.65;3.95;;;;;;;17.82;86.12;98709.63;5021917;28;20021;-75
2022/06/09 01:34:46;;;;;;;8.18;4.80;;;;;;;17.95;85.54;98705.19;5012312;28;20113;-75
2022/06/09 01:37:16;;;;;;;4.90;4.40;;;;;;;17.96;85.15;98691.84;5004182;28;20046;-75
2022/06/09 01:39:52;;;;;;;5.25;4.35;;;;;;;17.94;85.47;98688.59;5011134;28;20394;-75
2022/06/09 01:42:33;;;;;;;6.63;4.63;;;;;;;18.06;84.75;98685.41;5012280;28;20386;-76
2022/06/09 01:45:01;;;;;;;6.00;4.47;;;;;;;18.15;84.11;98687.00;5013458;28;20053;-75
2022/06/09 01:47:34;;;;;;;4.85;4.38;;;;;;;18.31;83.68;98684.56;5031833;28;20109;-75
2022/06/09 01:50:06;;;;;;;7.20;5.72;;;;;;;18.45;82.67;98691.41;5030800;28;20427;-75
2022/06/09 01:52:33;;;;;;;5.25;4.72;;;;;;;18.51;82.23;98684.13;5031960;28;20435;-76
2022/06/09 01:55:01;;;;;;;7.70;4.25;;;;;;;18.71;81.34;98692.16;5031657;28;20057;-75
2022/06/09 01:57:33;;;;;;;9.60;4.68;;;;;;;18.80;80.60;98681.19;5031753;28;20026;-76
2022/06/09 02:00:08;;;;;;;9.20;5.13;;;;;;;19.07;79.37;98678.69;5030338;28;20028;-75
2022/06/09 02:03:02;;;;;;;5.07;4.22;;;;;;;19.14;79.14;98682.72;5031810;28;20036;-75
2022/06/09 02:05:32;;;;;;;11.98;4.63;;;;;;;19.16;78.62;98683.09;5030484;28;20112;-75
2022/06/09 02:08:02;;;;;;;10.60;5.47;;;;;;;19.10;78.81;98684.72;5030447;28;20100;-75
2022/06/09 02:10:30;;;;;;;7.53;4.97;;;;;;;19.27;77.89;98681.00;5031753;28;20057;-75
2022/06/09 02:13:00;;;;;;;6.18;4.03;;;;;;;19.47;76.76;98684.13;5030320;28;20029;-76
2022/06/09 02:15:33;;;;;;;8.93;5.13;;;;;;;19.58;75.94;98686.88;5019797;28;20449;-76
2022/06/09 02:18:05;;;;;;;6.22;4.90;;;;;;;19.81;74.76;98682.66;5020961;28;20053;-75
2022/06/09 02:20:31;;;;;;;7.25;4.07;;;;;;;19.80;74.39;98685.94;5031066;28;20029;-76
2022/06/09 02:22:56;;;;;;;9.60;4.13;;;;;;;19.82;74.17;98667.25;5031233;28;20021;-75
2022/06/09 02:25:22;;;;;;;6.93;4.70;;;;;;;19.88;73.98;98693.97;5031516;28;20026;-76
2022/06/09 02:27:47;;;;;;;6.63;4.80;;;;;;;19.73;74.87;98690.44;5029903;28;20013;-76
2022/06/09 02:30:13;;;;;;;10.30;6.05;;;;;;;19.78;74.87;98692.81;5030493;28;20017;-76
2022/06/09 02:32:39;;;;;;;14.60;9.60;;;;;;;19.81;74.55;98685.50;5031217;28;20022;-75
2022/06/09 02:35:05;;;;;;;14.20;9.80;;;;;;;19.86;74.26;98687.91;5029729;28;20068;-76
2022/06/09 02:37:30;;;;;;;14.65;9.98;;;;;;;19.91;73.44;98683.81;5030757;28;20021;-76
2022/06/09 02:39:56;;;;;;;15.80;10.75;;;;;;;19.97;73.46;98687.84;5031343;28;20376;-76
2022/06/09 02:42:21;;;;;;;15.52;10.40;;;;;;;19.99;73.04;98678.91;5029536;28;20060;-75
2022/06/09 02:44:46;;;;;;;18.55;11.43;;;;;;;20.11;72.69;98684.09;5030478;28;20026;-75
2022/06/09 02:47:12;;;;;;;18.17;11.35;;;;;;;20.03;73.41;98685.38;5030986;28;20071;-76
2022/06/09 02:49:39;;;;;;;17.35;11.60;;;;;;;20.10;72.59;98685.31;5029855;28;20025;-76
2022/06/09 02:52:05;;;;;;;18.30;12.45;;;;;;;20.12;72.31;98682.84;5031272;28;20049;-76
2022/06/09 02:54:30;;;;;;;15.18;10.50;;;;;;;20.14;72.09;98688.09;5030822;28;20404;-75
2022/06/09 02:56:56;;;;;;;14.00;10.77;;;;;;;20.08;72.21;98681.28;5030971;28;20021;-76
2022/06/09 02:59:21;;;;;;;13.07;9.85;;;;;;;20.12;72.20;98676.34;5028349;28;20484;-76
2022/06/09 03:01:47;;;;;;;16.95;8.85;;;;;;;20.14;72.27;98671.88;5030881;28;20017;-76
2022/06/09 03:04:12;;;;;;;15.80;9.00;;;;;;;20.09;72.29;98680.88;5031090;28;20028;-76
2022/06/09 03:06:38;;;;;;;14.65;9.80;;;;;;;20.17;71.95;98675.91;5029545;28;20026;-76
2022/06/09 03:09:04;;;;;;;13.45;8.80;;;;;;;20.19;71.66;98690.50;5030740;28;20116;-76
2022/06/09 03:11:29;;;;;;;11.43;8.65;;;;;;;20.10;72.12;98679.63;5029226;28;20030;-76
2022/06/09 03:13:55;;;;;;;13.77;8.10;;;;;;;19.99;72.63;98681.75;5022590;28;20428;-76
2022/06/09 03:16:20;;;;;;;14.52;7.80;;;;;;;19.97;72.49;98687.84;5011262;28;20077;-76
2022/06/09 03:18:46;;;;;;;16.25;9.10;;;;;;;19.83;73.29;98682.25;5020958;28;20172;-76
2022/06/09 03:21:12;;;;;;;10.57;8.18;;;;;;;19.40;75.35;98689.84;5021006;28;20057;-75
2022/06/09 03:23:38;;;;;;;16.13;9.30;;;;;;;18.92;77.63;98692.06;5013121;28;20026;-76
2022/06/09 03:26:04;;;;;;;12.35;8.73;;;;;;;18.66;79.26;98696.22;5030470;28;20024;-74
2022/06/09 03:28:30;;;;;;;17.90;10.55;;;;;;;18.70;80.19;98696.19;5025463;28;20018;-76
2022/06/09 03:30:57;;;;;;;15.52;10.80;;;;;;;18.74;79.93;98697.00;5026048;28;20074;-74
2022/06/09 03:33:22;;;;;;;13.85;9.65;;;;;;;18.63;79.65;98682.84;5031559;28;20039;-79
2022/06/09 03:35:48;;;;;;;12.48;9.43;;;;;;;18.32;80.84;98686.16;5034275;28;20045;-76
2022/06/09 03:38:13;;;;;;;15.27;9.18;;;;;;;18.31;81.10;98678.09;5034128;28;20096;-77
2022/06/09 03:40:41;;;;;;;17.77;9.57;;;;;;;18.27;81.34;98682.94;5034512;28;20056;-78
2022/06/09 03:43:07;;;;;;;12.15;8.82;;;;;;;18.22;81.73;98678.50;5032824;28;20025;-77
2022/06/09 03:45:33;;;;;;;16.15;9.45;;;;;;;18.04;82.52;98665.19;5032916;28;20021;-76
2022/06/09 03:47:59;;;;;;;14.88;9.20;;;;;;;18.06;82.85;98676.91;5034319;28;20024;-73
2022/06/09 03:50:27;;;;;;;13.25;9.20;;;;;;;18.05;82.91;98683.00;5033102;28;20044;-76
2022/06/09 03:52:53;;;;;;;19.63;10.15;;;;;;;17.93;83.88;98682.16;5033733;28;20504;-76
2022/06/09 03:55:19;;;;;;;17.55;9.85;;;;;;;17.99;83.95;98691.03;5033847;28;20029;-75
2022/06/09 03:57:44;;;;;;;16.35;9.45;;;;;;;18.11;83.34;98678.53;5032846;28;20053;-76
2022/06/09 04:00:15;;;;;;;16.13;8.80;;;;;;;18.20;82.96;98689.41;5033659;28;20411;-76
2022/06/09 04:02:41;;;;;;;13.50;8.95;;;;;;;18.01;83.25;98682.13;5032120;28;20052;-76
2022/06/09 04:05:07;;;;;;;14.07;8.43;;;;;;;17.81;83.97;98686.19;5033327;28;20061;-76
2022/06/09 04:07:32;;;;;;;17.63;9.95;;;;;;;17.78;84.61;98686.19;5033950;28;20484;-76
2022/06/09 04:09:58;;;;;;;9.60;7.70;;;;;;;17.86;83.74;98681.31;5033840;28;20036;-76
2022/06/09 04:12:24;;;;;;;15.70;7.53;;;;;;;17.91;83.44;98684.56;5033241;28;20142;-75
2022/06/09 04:14:51;;;;;;;12.82;8.02;;;;;;;18.05;82.75;98689.44;5033402;28;20013;-76
2022/06/09 04:17:16;;;;;;;9.05;8.10;;;;;;;18.20;82.04;98689.41;5033629;28;20029;-76
2022/06/09 04:19:42;;;;;;;13.90;7.60;;;;;;;18.27;81.92;98685.78;5033625;28;20107;-76
2022/06/09 04:22:08;;;;;;;11.70;8.65;;;;;;;18.33;80.50;98684.16;5031950;28;20110;-76
2022/06/09 04:24:33;;;;;;;17.08;8.10;;;;;;;18.23;80.32;98692.25;5033520;28;20021;-76
2022/06/09 04:26:59;;;;;;;22.63;8.45;;;;;;;18.28;80.77;98685.38;5032787;28;20380;-76
2022/06/09 04:29:25;;;;;;;15.52;7.65;;;;;;;18.46;79.84;98688.16;5033509;28;20029;-76
2022/06/09 04:31:50;;;;;;;14.85;8.80;;;;;;;18.17;80.49;98685.41;5033166;28;20112;-76
2022/06/09 04:34:16;;;;;;;16.55;8.70;;;;;;;18.00;82.18;98687.00;5032151;28;20101;-76
2022/06/09 04:36:42;;;;;;;18.55;8.82;;;;;;;18.01;81.50;98691.44;5032959;28;20558;-76
2022/06/09 04:39:08;;;;;;;13.55;8.82;;;;;;;18.23;81.61;98691.47;5033192;28;20029;-76
2022/06/09 04:41:34;;;;;;;22.48;9.25;;;;;;;18.37;80.82;98691.44;5032464;28;20041;-75
2022/06/09 04:43:59;;;;;;;11.85;8.43;;;;;;;18.44;79.63;98698.28;5031361;28;20040;-76
2022/06/09 04:46:25;;;;;;;18.35;9.38;;;;;;;18.56;79.38;98683.69;5031808;28;20025;-75
2022/06/09 04:48:51;;;;;;;12.60;7.75;;;;;;;18.71;78.14;98686.50;5031295;28;20400;-76
2022/06/09 04:51:19;;;;;;;19.48;9.15;;;;;;;18.87;77.05;98686.84;5032948;28;20113;-77
2022/06/09 04:53:46;;;;;;;14.32;9.15;;;;;;;18.93;76.95;98684.38;5031570;28;20017;-76
2022/06/09 04:56:14;;;;;;;14.98;9.18;;;;;;;18.90;77.26;98690.88;5032901;28;20099;-76
2022/06/09 04:58:40;;;;;;;11.77;8.35;;;;;;;18.70;78.12;98694.19;5027959;28;20116;-76
2022/06/09 05:01:07;;;;;;;30.55;11.27;;;;;;;18.74;78.38;98691.34;5019920;28;20120;-76
2022/06/09 05:03:33;;;;;;;9.70;8.63;;;;;;;18.88;78.13;98693.28;5013190;28;20499;-76
2022/06/09 05:05:59;;;;;;;12.27;9.43;;;;;;;19.15;77.49;98702.13;5012979;28;20101;-76
2022/06/09 05:08:25;;;;;;;12.50;9.35;;;;;;;19.38;76.28;98694.31;5022654;28;20104;-76
2022/06/09 05:10:51;;;;;;;14.13;9.30;;;;;;;19.69;75.14;98703.84;5032470;28;20032;-76
2022/06/09 05:13:17;;;;;;;13.65;9.07;;;;;;;19.89;75.00;98689.09;5031727;28;20029;-76
2022/06/09 05:15:54;;;;;;;10.98;8.73;;;;;;;19.75;75.21;98702.16;5032371;28;20037;-76
2022/06/09 05:18:22;;;;;;;11.13;8.77;;;;;;;20.02;74.31;98710.09;5032494;28;20404;-76
2022/06/09 05:20:51;;;;;;;14.40;9.60;;;;;;;20.38;73.83;98702.47;5018360;28;20037;-76
2022/06/09 05:23:18;;;;;;;12.75;9.73;;;;;;;19.93;74.77;98701.25;5012973;28;20156;-76
2022/06/09 05:25:45;;;;;;;11.32;9.18;;;;;;;20.25;73.48;98702.19;5028151;28;20033;-77
2022/06/09 05:28:11;;;;;;;11.30;9.18;;;;;;;20.13;73.82;98695.81;5030174;28;20029;-76
2022/06/09 05:30:36;;;;;;;13.32;9.10;;;;;;;20.10;73.70;98702.34;5026742;28;20017;-76
2022/06/09 05:33:02;;;;;;;14.68;10.30;;;;;;;19.79;75.21;98702.16;5032151;28;20535;-77
2022/06/09 05:35:28;;;;;;;18.35;9.23;;;;;;;19.90;74.43;98685.03;5031897;28;20045;-76
2022/06/09 05:46:06;;;;;;;14.18;9.38;;;;;;;20.09;74.23;98685.72;5032269;28;20064;-76
2022/06/09 05:48:32;;;;;;;21.50;9.13;;;;;;;20.16;74.11;98694.97;5030497;28;20029;-77
2022/06/09 05:50:59;;;;;;;10.52;8.13;;;;;;;20.27;73.51;98691.22;5030305;28;20136;-77
2022/06/09 05:53:24;;;;;;;11.43;8.68;;;;;;;20.57;72.84;98690.50;5030886;28;20037;-76
2022/06/09 05:55:50;;;;;;;12.52;8.70;;;;;;;20.75;71.33;98683.81;5031799;28;20022;-77
2022/06/09 05:58:15;;;;;;;13.00;7.55;;;;;;;20.89;71.29;98678.00;5029410;28;20029;-77
2022/06/09 06:00:45;;;;;;;12.60;7.97;;;;;;;21.22;69.37;98683.25;5024460;28;20022;-77
2022/06/09 06:03:12;;;;;;;10.75;9.45;;;;;;;21.31;68.89;98686.41;5030940;28;20117;-77
2022/06/09 06:08:22;;;;;;;11.80;8.57;;;;;;;21.51;67.68;98694.22;5014186;28;20040;-76
2022/06/09 06:10:47;;;;;;;11.20;8.00;;;;;;;21.52;68.37;98689.34;5030808;28;20029;-76
2022/06/09 06:13:14;;;;;;;15.85;9.18;;;;;;;21.69;67.97;98685.44;5029182;28;20060;-77
2022/06/09 06:15:39;;;;;;;15.50;10.02;;;;;;;21.51;67.58;98687.75;5031080;28;20436;-77
2022/06/09 06:18:05;;;;;;;10.90;8.77;;;;;;;21.77;67.28;98686.13;5030710;28;20044;-76
2022/06/09 06:20:31;;;;;;;16.63;9.27;;;;;;;21.72;66.25;98686.63;5031188;28;20041;-77
2022/06/09 06:22:57;;;;;;;17.75;8.63;;;;;;;21.69;65.88;98674.06;5031332;28;20390;-77
2022/06/09 06:25:24;;;;;;;23.95;8.95;;;;;;;22.08;65.74;98685.22;5026327;28;20074;-77
2022/06/09 06:27:49;;;;;;;18.65;7.95;;;;;;;22.32;63.86;98670.97;5013424;28;20049;-77
2022/06/09 06:30:15;;;;;;;16.10;8.45;;;;;;;22.35;63.75;98670.13;5021703;28;20024;-77
2022/06/09 06:32:40;;;;;;;11.48;8.38;;;;;;;22.32;63.57;98676.69;5027906;28;20040;-79
2022/06/09 06:35:07;;;;;;;10.63;8.30;;;;;;;22.07;64.42;98667.38;5022091;28;20049;-78
2022/06/09 06:37:33;;;;;;;20.27;9.98;;;;;;;21.69;64.92;98671.22;5016410;28;20034;-78
2022/06/09 06:39:59;;;;;;;14.02;9.02;;;;;;;22.05;65.67;98664.16;5023258;28;20480;-76
2022/06/09 06:42:25;;;;;;;18.40;9.02;;;;;;;22.26;62.87;98676.38;5024596;28;20095;-76
2022/06/09 06:44:51;;;;;;;50.60;11.65;;;;;;;22.50;62.06;98651.56;5026318;28;20033;-75
2022/06/09 06:47:16;;;;;;;11.18;8.38;;;;;;;22.25;62.43;98667.03;5027798;28;20026;-75
2022/06/09 06:49:42;;;;;;;15.65;8.73;;;;;;;22.62;61.41;98661.47;5027356;28;20148;-72
2022/06/09 06:52:08;;;;;;;20.33;9.43;;;;;;;22.59;61.76;98668.06;5026283;28;20033;-71
2022/06/09 06:54:33;;;;;;;17.58;8.10;;;;;;;22.96;60.73;98659.59;5026306;28;20515;-71
2022/06/09 06:56:59;;;;;;;16.90;7.88;;;;;;;23.41;60.53;98659.06;5024768;28;20060;-73
2022/06/09 06:59:24;;;;;;;15.05;7.72;;;;;;;23.63;58.72;98664.22;5024651;28;20033;-73
2022/06/09 07:01:50;;;;;;;19.25;8.43;;;;;;;23.87;57.87;98664.06;5023879;28;20048;-74
2022/06/09 07:04:15;;;;;;;11.90;7.53;;;;;;;23.98;57.86;98656.03;5030140;28;20438;-75
2022/06/09 07:06:41;;;;;;;12.25;7.72;;;;;;;24.09;57.66;98654.97;5031881;28;20438;-74
2022/06/09 07:09:07;;;;;;;12.35;8.02;;;;;;;24.25;56.83;98648.44;5029042;28;20021;-74
2022/06/09 07:11:32;;;;;;;9.77;7.85;;;;;;;24.52;55.76;98653.84;5033078;28;20025;-73
2022/06/09 07:13:59;;;;;;;9.02;7.03;;;;;;;24.61;55.09;98656.03;5032370;28;20066;-74
2022/06/09 07:16:24;;;;;;;12.40;7.78;;;;;;;24.78;54.89;98653.16;5032563;28;20470;-72
2022/06/09 07:18:50;;;;;;;8.10;6.65;;;;;;;24.70;53.95;98646.81;5033722;28;20030;-72
2022/06/09 07:21:16;;;;;;;8.48;6.60;;;;;;;24.45;53.63;98641.81;5036003;28;20111;-72
2022/06/09 07:23:42;;;;;;;9.63;6.82;;;;;;;24.10;54.07;98643.13;5032505;28;20396;-73
2022/06/09 07:26:08;;;;;;;9.48;6.72;;;;;;;24.42;55.12;98651.25;5032623;28;20025;-73
2022/06/09 07:28:34;;;;;;;13.30;6.85;;;;;;;24.32;53.12;98650.31;5033042;28;20398;-73
2022/06/09 07:31:02;;;;;;;14.93;7.28;;;;;;;23.83;54.68;98651.94;5032982;28;20036;-72
2022/06/09 07:33:30;;;;;;;7.13;6.53;;;;;;;23.95;55.46;98641.84;5033099;28;20558;-73
2022/06/09 07:35:57;;;;;;;10.90;7.45;;;;;;;24.33;53.66;98657.63;5032043;28;20574;-73
2022/06/09 07:38:24;;;;;;;6.38;5.78;;;;;;;24.52;52.23;98655.88;5030695;28;20108;-75
2022/06/09 07:40:50;;;;;;;15.52;7.35;;;;;;;23.68;54.74;98648.63;5033560;28;20032;-74
2022/06/09 07:43:19;;;;;;;10.38;6.03;;;;;;;24.40;53.80;98652.53;5030870;28;20077;-74
2022/06/09 07:45:45;;;;;;;13.48;7.43;;;;;;;24.88;53.34;98642.66;5032282;28;20033;-74
2022/06/09 07:48:11;;;;;;;12.40;6.35;;;;;;;24.74;52.79;98636.09;5033809;28;20029;-74
2022/06/09 07:50:37;;;;;;;8.63;6.20;;;;;;;25.08;51.55;98631.81;5033774;28;20091;-74
2022/06/09 07:53:03;;;;;;;8.77;5.93;;;;;;;25.18;50.82;98629.09;5028624;28;20075;-74
2022/06/09 07:55:29;;;;;;;8.07;5.72;;;;;;;25.22;49.82;98635.53;5024679;28;20052;-76
2022/06/09 07:57:55;;;;;;;8.60;5.95;;;;;;;25.37;49.98;98630.13;5029066;28;20041;-76
2022/06/09 08:00:22;;;;;;;9.15;5.63;;;;;;;25.61;50.35;98622.03;5031326;28;20405;-76
2022/06/09 08:02:49;;;;;;;9.07;5.50;;;;;;;25.83;48.34;98638.53;5023989;28;20029;-76
2022/06/09 08:05:17;;;;;;;6.68;5.57;;;;;;;25.88;47.88;98640.78;5033329;28;20044;-76
2022/06/09 08:07:43;;;;;;;9.13;5.57;;;;;;;24.99;47.67;98646.00;5032197;28;20025;-78
2022/06/09 08:10:14;;;;;;;8.02;5.30;;;;;;;24.93;49.42;98627.81;5031331;28;20029;-78
2022/06/09 08:12:39;;;;;;;8.63;5.32;;;;;;;24.52;49.53;98642.41;5032170;28;20033;-75
2022/06/09 08:15:06;;;;;;;7.47;5.47;;;;;;;24.48;49.78;98644.53;5033666;28;20075;-75
2022/06/09 08:17:31;;;;;;;9.55;5.78;;;;;;;24.71;49.84;98636.97;5029997;28;20095;-75
2022/06/09 08:19:57;;;;;;;8.48;6.10;;;;;;;24.37;49.16;98630.56;5031097;28;20033;-74
2022/06/09 08:22:22;;;;;;;7.28;5.78;;;;;;;24.99;48.99;98622.31;5040550;28;20128;-75
2022/06/09 08:24:48;;;;;;;7.00;6.03;;;;;;;25.47;47.44;98622.50;5032040;28;20052;-75
2022/06/09 08:27:14;;;;;;;15.57;6.30;;;;;;;25.53;46.78;98620.66;5028132;28;20033;-76
2022/06/09 08:29:39;;;;;;;10.60;5.85;;;;;;;25.69;46.17;98618.94;5030239;28;20029;-77
2022/06/09 08:32:05;;;;;;;9.57;6.22;;;;;;;26.18;47.25;98612.78;5030515;28;20064;-76
2022/06/09 08:34:31;;;;;;;6.93;5.57;;;;;;;25.81;45.87;98592.34;5027097;28;20025;-76
2022/06/09 08:36:56;;;;;;;9.90;7.03;;;;;;;26.25;45.90;98599.47;5027157;28;20045;-75
2022/06/09 08:39:22;;;;;;;7.55;6.20;;;;;;;26.64;45.48;98597.22;5032269;28;20079;-75
2022/06/09 08:42:12;;;;;;;10.85;6.20;;;;;;;26.93;44.55;98587.56;5030905;28;20087;-75
2022/06/09 08:44:57;;;;;;;7.35;5.32;;;;;;;27.24;43.48;98575.28;5033098;28;20384;-75
2022/06/09 08:47:45;;;;;;;6.03;5.53;;;;;;;27.25;42.07;98576.06;5029656;28;20025;-74
2022/06/09 08:50:29;;;;;;;11.77;6.10;;;;;;;27.06;41.54;98575.97;5027056;28;20034;-74
2022/06/09 08:52:57;;;;;;;11.75;5.47;;;;;;;26.80;43.31;98567.53;5020615;28;20034;-75
2022/06/09 08:55:45;;;;;;;5.65;5.20;;;;;;;26.94;42.72;98571.13;5024133;28;20030;-75
2022/06/09 08:58:29;;;;;;;5.75;5.25;;;;;;;27.07;42.21;98559.59;5024582;28;20033;-75
2022/06/09 09:01:33;;;;;;;6.28;4.55;;;;;;;27.36;43.22;98570.69;5029135;28;20234;-75
2022/06/09 09:04:16;;;;;;;12.00;5.68;;;;;;;27.54;42.78;98558.50;5024193;28;20551;-78
2022/06/09 09:06:44;;;;;;;8.45;5.90;;;;;;;27.67;41.99;98566.19;5030866;28;20171;-71
2022/06/09 09:09:15;;;;;;;7.75;5.05;;;;;;;27.99;41.84;98561.13;5023320;28;20033;-71
2022/06/09 09:12:12;;;;;;;6.10;5.13;;;;;;;27.74;42.08;98549.44;5020247;28;20528;-70
2022/06/09 09:14:43;;;;;;;13.88;6.13;;;;;;;27.50;42.28;98554.94;5012635;28;20060;-72
2022/06/09 09:17:36;;;;;;;7.53;6.03;;;;;;;27.77;42.24;98550.59;5031799;28;20030;-75
2022/06/09 09:20:15;;;;;;;9.23;5.05;;;;;;;27.66;41.63;98541.63;5030826;28;20136;-76
2022/06/09 09:23:21;;;;;;;7.78;5.05;;;;;;;27.78;42.68;98537.81;5031324;28;20424;-73
2022/06/09 09:25:57;;;;;;;8.20;5.20;;;;;;;27.98;41.99;98543.09;5012692;28;20037;-71
2022/06/09 09:28:57;;;;;;;8.77;4.53;;;;;;;27.32;40.38;98533.53;5029578;28;20076;-75
2022/06/09 09:31:32;;;;;;;12.05;5.40;;;;;;;27.47;41.96;98524.31;5005735;28;20048;-71
2022/06/09 09:33:59;;;;;;;9.20;5.50;;;;;;;27.52;41.60;98526.56;5028418;28;20026;-73
2022/06/09 09:36:29;;;;;;;10.57;5.32;;;;;;;27.73;41.34;98518.31;5025060;28;20523;-74
2022/06/09 09:39:01;;;;;;;4.88;4.07;;;;;;;28.23;40.33;98517.41;5032259;28;20033;-73
2022/06/09 09:41:33;;;;;;;7.45;5.63;;;;;;;28.51;40.54;98508.75;5040045;28;20034;-75
2022/06/09 09:43:59;;;;;;;7.45;4.57;;;;;;;28.78;39.61;98502.16;5027764;28;20021;-72
2022/06/09 09:46:31;;;;;;;5.55;5.05;;;;;;;28.64;39.60;98502.81;5026318;28;20527;-75
2022/06/09 09:49:00;;;;;;;5.22;4.50;;;;;;;28.75;38.94;98510.94;5032173;28;20472;-75
2022/06/09 09:51:35;;;;;;;9.63;4.50;;;;;;;29.05;38.73;98497.59;5032168;28;20029;-74
2022/06/09 09:54:15;;;;;;;5.57;4.10;;;;;;;29.03;37.32;98493.59;5022986;28;20060;-75
2022/06/09 09:56:41;;;;;;;7.72;4.78;;;;;;;29.13;37.89;98490.16;5029193;28;20033;-74
2022/06/09 09:59:21;;;;;;;5.88;4.50;;;;;;;29.48;38.03;98491.78;5029395;28;20140;-77
2022/06/09 10:10:07;;;;;;;5.30;4.80;;;;;;;29.52;35.23;98485.84;5020727;28;20076;-75
2022/06/09 10:12:34;;;;;;;5.90;4.90;;;;;;;29.59;36.93;98476.81;5023049;28;20112;-74
2022/06/09 10:15:12;;;;;;;6.07;4.63;;;;;;;29.74;36.82;98476.06;5025402;28;20036;-74
2022/06/09 10:17:55;;;;;;;4.65;4.22;;;;;;;29.86;37.19;98462.69;5024075;28;20033;-74
2022/06/09 10:20:21;;;;;;;5.93;5.32;;;;;;;29.93;36.70;98471.75;5026317;28;20439;-74
2022/06/09 10:23:17;;;;;;;12.70;5.22;;;;;;;29.64;37.64;98472.47;5029158;28;20033;-74
2022/06/09 10:26:14;;;;;;;5.30;4.55;;;;;;;29.31;37.86;98462.59;5018909;28;20396;-74
2022/06/09 10:28:46;;;;;;;6.60;4.18;;;;;;;29.67;37.02;98462.84;5028498;28;20415;-74
2022/06/09 10:31:50;;;;;;;4.55;3.72;;;;;;;29.34;38.72;98455.84;5025628;28;20091;-74
2022/06/09 10:34:18;;;;;;;6.75;4.65;;;;;;;28.93;39.33;98455.44;5024837;28;20136;-73
2022/06/09 10:36:53;;;;;;;9.95;5.25;;;;;;;28.81;38.83;98451.44;5023567;28;20625;-73
2022/06/09 10:39:49;;;;;;;11.25;4.55;;;;;;;29.06;39.91;98446.56;5028434;28;20029;-73
2022/06/09 10:42:40;;;;;;;12.18;5.00;;;;;;;28.89;38.80;98446.97;5017400;28;20142;-74
2022/06/09 10:45:13;;;;;;;7.60;4.65;;;;;;;29.04;38.45;98441.31;5033106;28;20108;-73
2022/06/09 10:56:53;;;;;;;5.88;4.43;;;;;;;29.49;36.73;98420.56;5037972;28;20686;-74
2022/06/09 10:59:34;;;;;;;6.40;4.18;;;;;;;29.67;37.13;98428.28;5032020;28;20025;-74
2022/06/09 11:02:00;;;;;;;4.35;3.95;;;;;;;29.26;36.42;98425.81;5029622;28;20104;-74
2022/06/09 11:04:31;;;;;;;4.32;3.88;;;;;;;29.38;35.69;98427.69;5030451;28;20036;-74
2022/06/09 11:07:27;;;;;;;5.93;4.03;;;;;;;29.50;36.46;98422.97;5034671;28;20120;-74
2022/06/09 11:09:52;;;;;;;4.00;3.40;;;;;;;29.88;34.72;98422.66;5031445;28;20029;-74
2022/06/09 11:12:46;;;;;;;4.70;3.80;;;;;;;29.77;34.16;98417.47;5033951;28;20039;-74
2022/06/09 11:15:26;;;;;;;5.32;3.95;;;;;;;29.83;34.70;98415.50;5034570;28;20104;-75
2022/06/09 11:18:21;;;;;;;7.38;4.85;;;;;;;29.73;36.02;98416.88;5035765;28;20033;-73
2022/06/09 11:21:15;;;;;;;6.82;4.93;;;;;;;29.42;35.82;98408.13;5033245;28;20064;-75
2022/06/09 11:23:43;;;;;;;11.57;6.05;;;;;;;29.59;36.88;98404.81;5034619;28;20037;-75
2022/06/09 11:26:27;;;;;;;9.30;6.18;;;;;;;29.71;37.57;98411.59;5035961;28;20066;-75
2022/06/09 11:29:02;;;;;;;7.10;6.35;;;;;;;29.86;36.70;98402.97;5035306;28;20496;-75
2022/06/09 11:31:48;;;;;;;8.45;6.93;;;;;;;29.66;37.13;98406.53;5028738;28;20026;-74
2022/06/09 11:34:34;;;;;;;7.60;5.18;;;;;;;29.58;37.45;98396.69;5033887;28;20029;-74
2022/06/09 11:37:07;;;;;;;9.40;6.55;;;;;;;29.44;37.93;98383.81;5033106;28;20079;-74
2022/06/09 11:39:57;;;;;;;8.85;5.65;;;;;;;29.70;37.67;98386.97;5029887;28;20026;-73
2022/06/09 11:42:41;;;;;;;;;;;;;;;29.91;36.91;98398.63;5024802;28;20041;-75
2022/06/09 11:45:34;;;;;;;7.90;5.15;;;;;;;30.01;35.51;98400.13;5032243;28;19916;-75
2022/06/09 11:48:05;;;;;;;9.85;5.55;;;;;;;29.98;35.17;98409.75;5035525;28;20032;-75
2022/06/09 11:50:51;;;;;;;7.60;5.60;;;;;;;29.93;36.73;98408.34;5035415;28;20396;-75
2022/06/09 11:53:21;;;;;;;6.80;5.35;;;;;;;29.66;36.49;98410.22;5032339;28;20071;-75
2022/06/09 11:56:08;;;;;;;5.22;4.68;;;;;;;29.77;36.33;98417.47;5032623;28;20043;-73
2022/06/09 11:58:34;;;;;;;13.02;5.30;;;;;;;29.84;35.40;98415.00;5032706;28;20033;-74
2022/06/09 12:01:22;;;;;;;8.18;5.35;;;;;;;29.78;35.80;98408.31;5030638;28;20029;-74
2022/06/09 12:03:48;;;;;;;8.65;5.80;;;;;;;29.84;36.09;98423.66;5028124;28;20033;-73
2022/06/09 12:06:56;;;;;;;6.22;5.22;;;;;;;29.72;34.89;98416.09;5024007;28;20370;-74
2022/06/09 12:09:40;;;;;;;6.25;5.60;;;;;;;29.59;36.29;98424.19;4997801;28;20047;-75
2022/06/09 12:12:24;;;;;;;6.55;5.78;;;;;;;29.39;36.48;98437.09;5024941;28;20397;-74
2022/06/09 12:15:16;;;;;;;7.57;4.88;;;;;;;29.09;37.02;98411.84;5028425;28;20472;-74
2022/06/09 12:18:02;;;;;;;8.23;5.05;;;;;;;29.25;36.43;98429.97;5030584;28;20522;-73